Terminal Aerodrome Forecast
Issued by NWS

Home | Current Version | Previous Version | Graphics & Text | Print | Product List | Glossary On
Versions: 1 2 3 4 5 6 7 8 9 10 11 12 13 14 15 16 17 18 19 20 21 22 23 24 25 26 27 28 29 30 31 32 33 34 35 36 37 38
000
FTUS45 KGGW 290520
TAFOLF
TAF
KOLF 290520Z 2906/3006 17004KT 4SM FU BKN035
     FM291200 14004KT 5SM FU SCT200
     FM291800 19011KT P6SM SCT200
     FM300200 19005KT P6SM SCT200=

USA.gov is the U.S. government's official web portal to all federal, state and local government web resources and services.